sensor_id;sensor_type;location;lat;lon;timestamp;pressure;altitude;pressure_sealevel;temperature;humidity
79584;BME280;69053;57.338;18.700;2023-04-15T00:01:40;101808.59;;;4.87;81.58
79584;BME280;69053;57.338;18.700;2023-04-15T00:06:40;101806.28;;;4.92;82.21
79584;BME280;69053;57.338;18.700;2023-04-15T00:11:41;101808.19;;;5.00;81.99
79584;BME280;69053;57.338;18.700;2023-04-15T00:16:41;101815.84;;;5.04;81.51
79584;BME280;69053;57.338;18.700;2023-04-15T00:21:42;101809.63;;;5.04;81.81
79584;BME280;69053;57.338;18.700;2023-04-15T00:26:42;101808.75;;;5.03;81.94
79584;BME280;69053;57.338;18.700;2023-04-15T00:31:43;101815.00;;;5.04;81.49
79584;BME280;69053;57.338;18.700;2023-04-15T00:36:44;101801.50;;;5.04;81.66
79584;BME280;69053;57.338;18.700;2023-04-15T00:41:45;101805.50;;;5.00;81.90
79584;BME280;69053;57.338;18.700;2023-04-15T00:46:46;101802.69;;;4.92;81.24
79584;BME280;69053;57.338;18.700;2023-04-15T00:51:48;101806.03;;;4.85;81.63
79584;BME280;69053;57.338;18.700;2023-04-15T00:56:48;101815.81;;;4.86;82.14
79584;BME280;69053;57.338;18.700;2023-04-15T01:01:49;101807.25;;;4.91;82.12
79584;BME280;69053;57.338;18.700;2023-04-15T01:06:51;101813.91;;;4.97;81.84
79584;BME280;69053;57.338;18.700;2023-04-15T01:11:52;101813.31;;;5.03;81.58
79584;BME280;69053;57.338;18.700;2023-04-15T01:16:52;101811.97;;;5.07;81.23
79584;BME280;69053;57.338;18.700;2023-04-15T01:21:53;101821.66;;;5.10;81.26
79584;BME280;69053;57.338;18.700;2023-04-15T01:26:54;101813.41;;;5.11;80.80
79584;BME280;69053;57.338;18.700;2023-04-15T01:31:55;101806.66;;;5.15;80.31
79584;BME280;69053;57.338;18.700;2023-04-15T01:36:56;101804.50;;;5.19;80.13
79584;BME280;69053;57.338;18.700;2023-04-15T01:41:56;101812.47;;;5.20;79.96
79584;BME280;69053;57.338;18.700;2023-04-15T01:46:57;101810.63;;;5.21;79.55
79584;BME280;69053;57.338;18.700;2023-04-15T01:51:58;101813.16;;;5.22;79.69
79584;BME280;69053;57.338;18.700;2023-04-15T01:56:59;101800.38;;;5.24;79.25
79584;BME280;69053;57.338;18.700;2023-04-15T02:02:01;101799.50;;;5.24;79.54
79584;BME280;69053;57.338;18.700;2023-04-15T02:07:02;101813.72;;;5.26;79.19
79584;BME280;69053;57.338;18.700;2023-04-15T02:12:02;101804.91;;;5.24;78.85
79584;BME280;69053;57.338;18.700;2023-04-15T02:17:03;101810.44;;;5.22;79.29
79584;BME280;69053;57.338;18.700;2023-04-15T02:22:07;101808.91;;;5.20;78.89
79584;BME280;69053;57.338;18.700;2023-04-15T02:27:08;101809.91;;;5.19;78.82
79584;BME280;69053;57.338;18.700;2023-04-15T02:32:09;101810.06;;;5.17;78.94
79584;BME280;69053;57.338;18.700;2023-04-15T02:37:12;101812.06;;;5.15;78.59
79584;BME280;69053;57.338;18.700;2023-04-15T02:42:12;101815.78;;;5.14;79.10
79584;BME280;69053;57.338;18.700;2023-04-15T02:47:13;101819.78;;;5.10;79.13
79584;BME280;69053;57.338;18.700;2023-04-15T02:52:15;101815.00;;;5.04;79.60
79584;BME280;69053;57.338;18.700;2023-04-15T02:57:16;101825.28;;;5.00;79.29
79584;BME280;69053;57.338;18.700;2023-04-15T03:02:16;101824.69;;;4.97;79.69
79584;BME280;69053;57.338;18.700;2023-04-15T03:07:17;101835.97;;;4.92;79.93
79584;BME280;69053;57.338;18.700;2023-04-15T03:12:18;101830.88;;;4.89;79.93
79584;BME280;69053;57.338;18.700;2023-04-15T03:17:18;101826.78;;;4.85;80.18
79584;BME280;69053;57.338;18.700;2023-04-15T03:22:19;101836.03;;;4.82;79.99
79584;BME280;69053;57.338;18.700;2023-04-15T03:27:21;101836.03;;;4.82;79.80
79584;BME280;69053;57.338;18.700;2023-04-15T03:32:21;101845.28;;;4.80;80.08
79584;BME280;69053;57.338;18.700;2023-04-15T03:37:22;101847.13;;;4.79;79.55
79584;BME280;69053;57.338;18.700;2023-04-15T03:42:23;101855.34;;;4.78;80.06
79584;BME280;69053;57.338;18.700;2023-04-15T03:47:23;101853.53;;;4.78;79.80
79584;BME280;69053;57.338;18.700;2023-04-15T03:52:24;101855.34;;;4.78;79.53
79584;BME280;69053;57.338;18.700;2023-04-15T03:57:24;101860.94;;;4.76;79.85
79584;BME280;69053;57.338;18.700;2023-04-15T04:02:25;101860.06;;;4.76;79.72
79584;BME280;69053;57.338;18.700;2023-04-15T04:07:27;101861.94;;;4.75;79.79
79584;BME280;69053;57.338;18.700;2023-04-15T04:12:27;101869.03;;;4.76;80.02
79584;BME280;69053;57.338;18.700;2023-04-15T04:17:28;101865.47;;;4.76;79.75
79584;BME280;69053;57.338;18.700;2023-04-15T04:22:29;101877.81;;;4.78;79.67
79584;BME280;69053;57.338;18.700;2023-04-15T04:27:30;101875.13;;;4.78;79.94
79584;BME280;69053;57.338;18.700;2023-04-15T04:32:30;101872.28;;;4.80;79.53
79584;BME280;69053;57.338;18.700;2023-04-15T04:37:31;101880.25;;;4.81;79.52
79584;BME280;69053;57.338;18.700;2023-04-15T04:42:31;101879.06;;;4.84;79.04
79584;BME280;69053;57.338;18.700;2023-04-15T04:47:32;101891.41;;;4.86;79.53
79584;BME280;69053;57.338;18.700;2023-04-15T04:52:32;101887.56;;;4.89;78.92
79584;BME280;69053;57.338;18.700;2023-04-15T04:57:33;101886.41;;;4.92;78.67
79584;BME280;69053;57.338;18.700;2023-04-15T05:02:35;101889.34;;;4.98;78.91
79584;BME280;69053;57.338;18.700;2023-04-15T05:07:36;101880.81;;;5.03;78.24
79584;BME280;69053;57.338;18.700;2023-04-15T05:12:37;101882.06;;;5.08;78.07
79584;BME280;69053;57.338;18.700;2023-04-15T05:17:38;101889.41;;;5.16;77.50
79584;BME280;69053;57.338;18.700;2023-04-15T05:22:41;101883.25;;;5.24;77.71
79584;BME280;69053;57.338;18.700;2023-04-15T05:27:42;101890.28;;;5.35;76.90
79584;BME280;69053;57.338;18.700;2023-04-15T05:32:42;101888.69;;;5.42;76.59
79584;BME280;69053;57.338;18.700;2023-04-15T05:37:44;101889.06;;;5.47;76.54
79584;BME280;69053;57.338;18.700;2023-04-15T05:42:48;101888.75;;;5.50;76.65
79584;BME280;69053;57.338;18.700;2023-04-15T05:48:25;101885.56;;;5.55;76.59
79584;BME280;69053;57.338;18.700;2023-04-15T05:53:26;101888.50;;;5.61;76.33
79584;BME280;69053;57.338;18.700;2023-04-15T05:58:26;101890.13;;;5.72;75.79
79584;BME280;69053;57.338;18.700;2023-04-15T06:03:27;101895.59;;;5.80;75.30
79584;BME280;69053;57.338;18.700;2023-04-15T06:08:28;101899.09;;;5.91;74.96
79584;BME280;69053;57.338;18.700;2023-04-15T06:13:32;101905.75;;;5.96;74.48
79584;BME280;69053;57.338;18.700;2023-04-15T06:18:33;101899.25;;;6.07;74.18
79584;BME280;69053;57.338;18.700;2023-04-15T06:23:34;101900.38;;;6.23;74.29
79584;BME280;69053;57.338;18.700;2023-04-15T06:28:35;101912.09;;;6.31;72.83
79584;BME280;69053;57.338;18.700;2023-04-15T06:33:36;101916.56;;;6.41;73.29
79584;BME280;69053;57.338;18.700;2023-04-15T06:38:36;101930.53;;;6.54;72.87
79584;BME280;69053;57.338;18.700;2023-04-15T06:43:38;101927.53;;;6.65;72.45
79584;BME280;69053;57.338;18.700;2023-04-15T06:48:38;101930.59;;;6.70;72.01
79584;BME280;69053;57.338;18.700;2023-04-15T06:53:39;101937.34;;;6.66;71.76
79584;BME280;69053;57.338;18.700;2023-04-15T06:58:41;101932.03;;;6.83;72.08
79584;BME280;69053;57.338;18.700;2023-04-15T07:03:44;101947.69;;;6.97;70.97
79584;BME280;69053;57.338;18.700;2023-04-15T07:08:45;101950.91;;;7.01;70.86
79584;BME280;69053;57.338;18.700;2023-04-15T07:13:45;101946.22;;;7.11;70.60
79584;BME280;69053;57.338;18.700;2023-04-15T07:18:46;101947.56;;;7.15;69.77
79584;BME280;69053;57.338;18.700;2023-04-15T07:23:47;101953.19;;;7.22;69.91
79584;BME280;69053;57.338;18.700;2023-04-15T07:28:51;101956.78;;;7.22;69.74
79584;BME280;69053;57.338;18.700;2023-04-15T07:33:55;101956.78;;;7.30;69.45
79584;BME280;69053;57.338;18.700;2023-04-15T07:38:55;101962.41;;;7.37;69.39
79584;BME280;69053;57.338;18.700;2023-04-15T07:43:57;101957.06;;;7.70;68.61
79584;BME280;69053;57.338;18.700;2023-04-15T07:48:58;101964.38;;;7.78;67.84
79584;BME280;69053;57.338;18.700;2023-04-15T07:53:59;101965.72;;;7.65;67.67
79584;BME280;69053;57.338;18.700;2023-04-15T07:58:59;101971.09;;;7.57;67.90
79584;BME280;69053;57.338;18.700;2023-04-15T08:04:02;101971.47;;;7.62;68.24
79584;BME280;69053;57.338;18.700;2023-04-15T08:09:02;101981.19;;;7.89;67.70
79584;BME280;69053;57.338;18.700;2023-04-15T08:14:03;101987.63;;;8.21;67.71
79584;BME280;69053;57.338;18.700;2023-04-15T08:19:04;101982.88;;;8.81;65.30
79584;BME280;69053;57.338;18.700;2023-04-15T08:24:17;101979.66;;;8.69;63.50
79584;BME280;69053;57.338;18.700;2023-04-15T08:29:18;101980.88;;;8.67;64.16
79584;BME280;69053;57.338;18.700;2023-04-15T08:34:18;101972.66;;;8.91;63.73
79584;BME280;69053;57.338;18.700;2023-04-15T08:39:19;101988.84;;;9.24;62.86
79584;BME280;69053;57.338;18.700;2023-04-15T08:44:20;101990.78;;;9.47;62.69
79584;BME280;69053;57.338;18.700;2023-04-15T08:49:24;101990.25;;;9.51;61.17
79584;BME280;69053;57.338;18.700;2023-04-15T08:54:26;101988.13;;;9.70;61.08
79584;BME280;69053;57.338;18.700;2023-04-15T08:59:29;101980.50;;;9.65;60.10
79584;BME280;69053;57.338;18.700;2023-04-15T09:04:30;101994.28;;;9.64;61.08
79584;BME280;69053;57.338;18.700;2023-04-15T09:09:30;101993.25;;;9.65;60.42
79584;BME280;69053;57.338;18.700;2023-04-15T09:14:32;101990.56;;;9.88;60.76
79584;BME280;69053;57.338;18.700;2023-04-15T09:19:34;101990.44;;;10.04;60.34
79584;BME280;69053;57.338;18.700;2023-04-15T09:24:38;101990.75;;;10.32;58.55
79584;BME280;69053;57.338;18.700;2023-04-15T09:29:40;102004.84;;;10.74;58.07
79584;BME280;69053;57.338;18.700;2023-04-15T09:34:42;101995.97;;;10.95;56.63
79584;BME280;69053;57.338;18.700;2023-04-15T09:39:51;102001.09;;;10.75;57.07
79584;BME280;69053;57.338;18.700;2023-04-15T09:44:52;102004.66;;;10.76;57.49
79584;BME280;69053;57.338;18.700;2023-04-15T09:49:56;101998.00;;;10.78;56.53
79584;BME280;69053;57.338;18.700;2023-04-15T09:54:58;101996.91;;;10.49;57.71
79584;BME280;69053;57.338;18.700;2023-04-15T09:59:59;101991.69;;;10.63;56.90
79584;BME280;69053;57.338;18.700;2023-04-15T10:05:03;102002.31;;;10.35;57.83
79584;BME280;69053;57.338;18.700;2023-04-15T10:10:06;101997.91;;;10.34;58.48
79584;BME280;69053;57.338;18.700;2023-04-15T10:15:11;101995.13;;;10.57;58.16
79584;BME280;69053;57.338;18.700;2023-04-15T10:20:13;101992.00;;;10.98;57.03
79584;BME280;69053;57.338;18.700;2023-04-15T10:25:15;101996.91;;;11.02;56.79
79584;BME280;69053;57.338;18.700;2023-04-15T10:30:16;101999.63;;;11.02;56.40
79584;BME280;69053;57.338;18.700;2023-04-15T10:35:18;101991.88;;;10.61;56.80
79584;BME280;69053;57.338;18.700;2023-04-15T10:40:33;102001.63;;;9.86;58.88
79584;BME280;69053;57.338;18.700;2023-04-15T10:45:35;102003.09;;;9.66;60.57
79584;BME280;69053;57.338;18.700;2023-04-15T10:50:36;101999.34;;;9.67;59.93
79584;BME280;69053;57.338;18.700;2023-04-15T10:55:37;102000.50;;;9.41;60.71
79584;BME280;69053;57.338;18.700;2023-04-15T11:00:37;102005.03;;;9.09;61.49
79584;BME280;69053;57.338;18.700;2023-04-15T11:05:48;102014.78;;;8.87;62.27
79584;BME280;69053;57.338;18.700;2023-04-15T11:10:50;102022.13;;;8.62;62.96
79584;BME280;69053;57.338;18.700;2023-04-15T11:15:55;102011.41;;;8.44;63.95
79584;BME280;69053;57.338;18.700;2023-04-15T11:21:01;102010.91;;;8.32;64.15
79584;BME280;69053;57.338;18.700;2023-04-15T11:26:04;101997.84;;;8.27;64.47
79584;BME280;69053;57.338;18.700;2023-04-15T11:31:15;101999.84;;;8.34;64.45
79584;BME280;69053;57.338;18.700;2023-04-15T11:36:17;102005.28;;;8.42;64.73
79584;BME280;69053;57.338;18.700;2023-04-15T11:41:24;102005.81;;;8.54;64.48
79584;BME280;69053;57.338;18.700;2023-04-15T11:46:29;102011.94;;;8.64;64.76
79584;BME280;69053;57.338;18.700;2023-04-15T11:51:33;102010.03;;;8.64;64.86
79584;BME280;69053;57.338;18.700;2023-04-15T11:56:34;102012.09;;;8.54;64.83
79584;BME280;69053;57.338;18.700;2023-04-15T12:01:36;102015.00;;;8.53;64.83
79584;BME280;69053;57.338;18.700;2023-04-15T12:06:41;102014.47;;;8.41;65.04
79584;BME280;69053;57.338;18.700;2023-04-15T12:11:47;102018.00;;;8.33;66.11
79584;BME280;69053;57.338;18.700;2023-04-15T12:16:50;102017.84;;;8.35;65.62
79584;BME280;69053;57.338;18.700;2023-04-15T12:22:15;102033.84;;;8.46;65.24
79584;BME280;69053;57.338;18.700;2023-04-15T12:27:16;102037.06;;;8.50;65.83
79584;BME280;69053;57.338;18.700;2023-04-15T12:32:17;102038.91;;;8.49;65.73
79584;BME280;69053;57.338;18.700;2023-04-15T12:37:22;102038.75;;;8.51;65.60
79584;BME280;69053;57.338;18.700;2023-04-15T12:42:22;102041.81;;;8.56;65.22
79584;BME280;69053;57.338;18.700;2023-04-15T12:47:23;102048.63;;;8.60;65.38
79584;BME280;69053;57.338;18.700;2023-04-15T12:52:23;102047.06;;;8.57;64.75
79584;BME280;69053;57.338;18.700;2023-04-15T12:57:24;102052.16;;;8.60;64.62
79584;BME280;69053;57.338;18.700;2023-04-15T13:02:25;102052.84;;;8.62;63.71
79584;BME280;69053;57.338;18.700;2023-04-15T13:07:27;102058.09;;;8.64;64.30
79584;BME280;69053;57.338;18.700;2023-04-15T13:12:28;102052.66;;;8.72;63.57
79584;BME280;69053;57.338;18.700;2023-04-15T13:17:30;102050.78;;;8.81;63.11
79584;BME280;69053;57.338;18.700;2023-04-15T13:22:33;102054.84;;;8.85;62.21
79584;BME280;69053;57.338;18.700;2023-04-15T13:27:34;102056.22;;;8.89;62.24
79584;BME280;69053;57.338;18.700;2023-04-15T13:32:34;102048.06;;;8.81;62.11
79584;BME280;69053;57.338;18.700;2023-04-15T13:37:35;102053.00;;;8.86;61.75
79584;BME280;69053;57.338;18.700;2023-04-15T13:42:36;102052.47;;;8.90;61.78
79584;BME280;69053;57.338;18.700;2023-04-15T13:47:37;102048.56;;;8.85;61.34
79584;BME280;69053;57.338;18.700;2023-04-15T13:52:38;102055.56;;;8.79;61.80
79584;BME280;69053;57.338;18.700;2023-04-15T13:57:39;102057.06;;;8.81;61.75
79584;BME280;69053;57.338;18.700;2023-04-15T14:02:40;102063.34;;;8.90;60.07
79584;BME280;69053;57.338;18.700;2023-04-15T14:07:41;102052.78;;;8.95;60.05
79584;BME280;69053;57.338;18.700;2023-04-15T14:12:42;102064.38;;;8.97;59.61
79584;BME280;69053;57.338;18.700;2023-04-15T14:17:42;102055.19;;;8.90;59.21
79584;BME280;69053;57.338;18.700;2023-04-15T14:22:43;102065.72;;;8.85;59.42
79584;BME280;69053;57.338;18.700;2023-04-15T14:27:44;102066.41;;;8.87;59.59
79584;BME280;69053;57.338;18.700;2023-04-15T14:32:45;102071.69;;;8.80;59.14
79584;BME280;69053;57.338;18.700;2023-04-15T14:38:05;102073.56;;;8.63;58.79
79584;BME280;69053;57.338;18.700;2023-04-15T14:43:09;102079.66;;;8.49;58.92
79584;BME280;69053;57.338;18.700;2023-04-15T14:48:10;102076.22;;;8.39;59.53
79584;BME280;69053;57.338;18.700;2023-04-15T14:53:11;102077.06;;;8.23;59.73
79584;BME280;69053;57.338;18.700;2023-04-15T14:58:12;102085.69;;;8.10;60.65
79584;BME280;69053;57.338;18.700;2023-04-15T15:03:13;102083.97;;;7.93;60.58
79584;BME280;69053;57.338;18.700;2023-04-15T15:08:13;102099.66;;;7.73;61.26
79584;BME280;69053;57.338;18.700;2023-04-15T15:13:14;102098.88;;;7.54;61.52
79584;BME280;69053;57.338;18.700;2023-04-15T15:18:16;102102.72;;;7.43;61.50
79584;BME280;69053;57.338;18.700;2023-04-15T15:23:17;102099.97;;;7.35;61.77
79584;BME280;69053;57.338;18.700;2023-04-15T15:28:18;102110.97;;;7.33;62.07
79584;BME280;69053;57.338;18.700;2023-04-15T15:33:20;102115.50;;;7.25;62.12
79584;BME280;69053;57.338;18.700;2023-04-15T15:38:21;102115.81;;;7.22;61.93
79584;BME280;69053;57.338;18.700;2023-04-15T15:43:22;102117.66;;;7.21;62.05
79584;BME280;69053;57.338;18.700;2023-04-15T15:48:23;102110.91;;;7.25;62.33
79584;BME280;69053;57.338;18.700;2023-04-15T15:53:23;102120.28;;;7.31;61.74
79584;BME280;69053;57.338;18.700;2023-04-15T15:58:25;102115.38;;;7.35;60.93
79584;BME280;69053;57.338;18.700;2023-04-15T16:03:28;102119.63;;;7.37;61.36
79584;BME280;69053;57.338;18.700;2023-04-15T16:08:29;102123.56;;;7.43;60.75
79584;BME280;69053;57.338;18.700;2023-04-15T16:13:29;102118.47;;;7.40;61.28
79584;BME280;69053;57.338;18.700;2023-04-15T16:18:30;102126.06;;;7.36;62.12
79584;BME280;69053;57.338;18.700;2023-04-15T16:23:30;102133.16;;;7.29;62.02
79584;BME280;69053;57.338;18.700;2023-04-15T16:28:31;102139.44;;;7.11;63.22
79584;BME280;69053;57.338;18.700;2023-04-15T16:33:32;102140.03;;;6.97;63.48
79584;BME280;69053;57.338;18.700;2023-04-15T16:38:32;102146.69;;;6.85;63.80
79584;BME280;69053;57.338;18.700;2023-04-15T16:43:33;102146.78;;;6.75;63.71
79584;BME280;69053;57.338;18.700;2023-04-15T16:48:33;102160.09;;;6.68;63.89
79584;BME280;69053;57.338;18.700;2023-04-15T16:53:34;102146.84;;;6.65;63.02
79584;BME280;69053;57.338;18.700;2023-04-15T16:58:35;102157.28;;;6.60;62.62
79584;BME280;69053;57.338;18.700;2023-04-15T17:03:35;102158.63;;;6.56;62.04
79584;BME280;69053;57.338;18.700;2023-04-15T17:08:36;102153.19;;;6.56;61.88
79584;BME280;69053;57.338;18.700;2023-04-15T17:13:37;102164.34;;;6.53;62.15
79584;BME280;69053;57.338;18.700;2023-04-15T17:18:38;102164.97;;;6.47;62.39
79584;BME280;69053;57.338;18.700;2023-04-15T17:23:38;102160.16;;;6.41;62.62
79584;BME280;69053;57.338;18.700;2023-04-15T17:28:39;102166.75;;;6.38;62.45
79584;BME280;69053;57.338;18.700;2023-04-15T17:33:41;102174.47;;;6.33;63.00
79584;BME280;69053;57.338;18.700;2023-04-15T17:38:43;102184.75;;;6.29;62.73
79584;BME280;69053;57.338;18.700;2023-04-15T17:43:44;102183.03;;;6.28;62.51
79584;BME280;69053;57.338;18.700;2023-04-15T17:48:45;102188.97;;;6.32;62.64
79584;BME280;69053;57.338;18.700;2023-04-15T17:53:46;102182.25;;;6.36;62.23
79584;BME280;69053;57.338;18.700;2023-04-15T17:58:47;102194.03;;;6.45;61.74
79584;BME280;69053;57.338;18.700;2023-04-15T18:03:48;102187.25;;;6.59;60.96
79584;BME280;69053;57.338;18.700;2023-04-15T18:08:48;102188.41;;;6.74;59.58
79584;BME280;69053;57.338;18.700;2023-04-15T18:13:49;102193.34;;;6.79;59.98
79584;BME280;69053;57.338;18.700;2023-04-15T18:18:49;102197.47;;;6.83;59.88
79584;BME280;69053;57.338;18.700;2023-04-15T18:23:50;102206.75;;;6.80;60.22
79584;BME280;69053;57.338;18.700;2023-04-15T18:28:51;102207.84;;;6.69;61.13
79584;BME280;69053;57.338;18.700;2023-04-15T18:34:01;102210.75;;;6.58;61.76
79584;BME280;69053;57.338;18.700;2023-04-15T18:39:05;102221.13;;;6.45;62.51
79584;BME280;69053;57.338;18.700;2023-04-15T18:44:06;102225.00;;;6.32;63.12
79584;BME280;69053;57.338;18.700;2023-04-15T18:49:06;102226.31;;;6.28;62.88
79584;BME280;69053;57.338;18.700;2023-04-15T18:54:07;102219.34;;;6.26;62.96
79584;BME280;69053;57.338;18.700;2023-04-15T18:59:07;102220.38;;;6.25;63.04
79584;BME280;69053;57.338;18.700;2023-04-15T19:04:08;102222.63;;;6.29;62.34
79584;BME280;69053;57.338;18.700;2023-04-15T19:09:09;102231.75;;;6.28;62.65
79584;BME280;69053;57.338;18.700;2023-04-15T19:14:09;102239.44;;;6.23;63.00
79584;BME280;69053;57.338;18.700;2023-04-15T19:19:10;102232.94;;;6.16;63.35
79584;BME280;69053;57.338;18.700;2023-04-15T19:24:13;102232.84;;;6.08;64.02
79584;BME280;69053;57.338;18.700;2023-04-15T19:29:14;102234.72;;;5.97;64.72
79584;BME280;69053;57.338;18.700;2023-04-15T19:34:14;102236.59;;;5.87;65.21
79584;BME280;69053;57.338;18.700;2023-04-15T19:39:16;102229.78;;;5.73;65.63
79584;BME280;69053;57.338;18.700;2023-04-15T19:44:17;102234.38;;;5.63;66.21
79584;BME280;69053;57.338;18.700;2023-04-15T19:49:18;102233.97;;;5.58;66.23
79584;BME280;69053;57.338;18.700;2023-04-15T19:54:18;102238.94;;;5.53;66.60
79584;BME280;69053;57.338;18.700;2023-04-15T19:59:19;102237.56;;;5.49;66.67
79584;BME280;69053;57.338;18.700;2023-04-15T20:04:25;102247.81;;;5.45;66.73
79584;BME280;69053;57.338;18.700;2023-04-15T20:09:26;102240.69;;;5.44;66.27
79584;BME280;69053;57.338;18.700;2023-04-15T20:14:27;102245.66;;;5.49;65.67
79584;BME280;69053;57.338;18.700;2023-04-15T20:19:27;102238.94;;;5.53;65.65
79584;BME280;69053;57.338;18.700;2023-04-15T20:24:28;102242.34;;;5.55;65.46
79584;BME280;69053;57.338;18.700;2023-04-15T20:29:29;102234.72;;;5.50;65.79
79584;BME280;69053;57.338;18.700;2023-04-15T20:34:29;102241.38;;;5.46;66.09
79584;BME280;69053;57.338;18.700;2023-04-15T20:39:30;102251.06;;;5.39;66.40
79584;BME280;69053;57.338;18.700;2023-04-15T20:44:31;102245.25;;;5.34;66.99
79584;BME280;69053;57.338;18.700;2023-04-15T20:49:35;102249.25;;;5.30;67.39
79584;BME280;69053;57.338;18.700;2023-04-15T20:54:36;102240.56;;;5.26;66.99
79584;BME280;69053;57.338;18.700;2023-04-15T20:59:36;102238.56;;;5.28;67.42
79584;BME280;69053;57.338;18.700;2023-04-15T21:04:39;102237.84;;;5.36;65.90
79584;BME280;69053;57.338;18.700;2023-04-15T21:09:39;102247.38;;;5.40;66.42
79584;BME280;69053;57.338;18.700;2023-04-15T21:14:42;102243.81;;;5.39;66.10
79584;BME280;69053;57.338;18.700;2023-04-15T21:19:42;102244.81;;;5.38;66.79
79584;BME280;69053;57.338;18.700;2023-04-15T21:24:43;102249.34;;;5.38;66.61
79584;BME280;69053;57.338;18.700;2023-04-15T21:29:43;102244.09;;;5.36;67.01
79584;BME280;69053;57.338;18.700;2023-04-15T21:34:44;102243.38;;;5.34;67.06
79584;BME280;69053;57.338;18.700;2023-04-15T21:39:44;102248.66;;;5.36;66.30
79584;BME280;69053;57.338;18.700;2023-04-15T21:44:45;102254.91;;;5.36;66.75
79584;BME280;69053;57.338;18.700;2023-04-15T21:49:46;102261.31;;;5.35;66.90
79584;BME280;69053;57.338;18.700;2023-04-15T21:54:47;102260.75;;;5.32;67.98
79584;BME280;69053;57.338;18.700;2023-04-15T21:59:48;102256.03;;;5.24;68.00
79584;BME280;69053;57.338;18.700;2023-04-15T22:04:48;102255.94;;;5.16;68.71
79584;BME280;69053;57.338;18.700;2023-04-15T22:09:49;102262.75;;;5.10;69.66
79584;BME280;69053;57.338;18.700;2023-04-15T22:14:49;102257.91;;;5.04;69.95
79584;BME280;69053;57.338;18.700;2023-04-15T22:19:50;102261.88;;;5.00;69.58
79584;BME280;69053;57.338;18.700;2023-04-15T22:24:51;102254.78;;;4.99;70.07
79584;BME280;69053;57.338;18.700;2023-04-15T22:29:51;102244.97;;;4.98;69.69
79584;BME280;69053;57.338;18.700;2023-04-15T22:34:52;102246.69;;;4.99;69.84
79584;BME280;69053;57.338;18.700;2023-04-15T22:39:52;102252.38;;;4.96;69.58
79584;BME280;69053;57.338;18.700;2023-04-15T22:44:53;102256.63;;;4.98;69.38
79584;BME280;69053;57.338;18.700;2023-04-15T22:49:54;102260.19;;;4.99;69.16
79584;BME280;69053;57.338;18.700;2023-04-15T22:54:54;102272.97;;;4.97;69.36
79584;BME280;69053;57.338;18.700;2023-04-15T22:59:55;102267.88;;;4.94;69.11
79584;BME280;69053;57.338;18.700;2023-04-15T23:04:55;102266.16;;;4.93;68.96
79584;BME280;69053;57.338;18.700;2023-04-15T23:09:57;102259.19;;;4.90;69.44
79584;BME280;69053;57.338;18.700;2023-04-15T23:14:59;102261.16;;;4.88;69.23
79584;BME280;69053;57.338;18.700;2023-04-15T23:20:00;102265.00;;;4.85;69.13
79584;BME280;69053;57.338;18.700;2023-04-15T23:25:00;102274.22;;;4.83;69.75
79584;BME280;69053;57.338;18.700;2023-04-15T23:30:01;102265.56;;;4.79;69.87
79584;BME280;69053;57.338;18.700;2023-04-15T23:35:02;102257.59;;;4.78;69.92
79584;BME280;69053;57.338;18.700;2023-04-15T23:40:03;102262.28;;;4.76;69.84
79584;BME280;69053;57.338;18.700;2023-04-15T23:45:04;102260.72;;;4.73;70.16
79584;BME280;69053;57.338;18.700;2023-04-15T23:50:08;102258.16;;;4.72;70.40
79584;BME280;69053;57.338;18.700;2023-04-15T23:55:08;102253.88;;;4.69;70.24
